Time;durP1;ratioP1;P1;durP2;ratioP2;P2;SDS_P1;SDS_P2;PMS_P1;PMS_P2;Temp;Humidity;BMP_temperature;BMP_pressure;BME280_temperature;BME280_humidity;BME280_pressure;Samples;Min_cycle;Max_cycle;Signal;HPM_P1;HPM_P2
2022/11/24 00:02:13;;;;;;;;;;;28.00;92.90;;;;;;5084715;28;19946;-58
2022/11/24 00:04:39;;;;;;;;;;;28.00;92.80;;;;;;5085381;28;19905;-57
2022/11/24 00:07:06;;;;;;;;;;;27.90;92.80;;;;;;5086019;28;19916;-55
2022/11/24 00:09:32;;;;;;;;;;;27.90;92.70;;;;;;5086856;28;20131;-54
2022/11/24 00:12:00;;;;;;;;;;;27.90;92.70;;;;;;5086702;28;19908;-54
2022/11/24 00:14:26;;;;;;;;;;;27.90;92.70;;;;;;5086499;28;19912;-53
2022/11/24 00:16:52;;;;;;;;;;;27.90;92.60;;;;;;5086722;28;19917;-52
2022/11/24 00:19:18;;;;;;;;;;;27.90;92.60;;;;;;5086590;28;19904;-56
2022/11/24 00:21:44;;;;;;;;;;;27.90;92.70;;;;;;5086210;28;19907;-55
2022/11/24 00:24:11;;;;;;;;;;;27.90;92.70;;;;;;5086745;28;19913;-57
2022/11/24 00:26:43;;;;;;;;;;;27.80;92.70;;;;;;5087655;28;19955;-55
2022/11/24 00:29:10;;;;;;;;;;;27.80;92.70;;;;;;5086143;28;19986;-52
2022/11/24 00:31:38;;;;;;;;;;;27.90;92.90;;;;;;5087705;28;19927;-56
2022/11/24 00:34:05;;;;;;;;;;;27.80;92.80;;;;;;5086189;28;20226;-56
2022/11/24 00:36:34;;;;;;;;;;;27.80;92.90;;;;;;5086697;28;19916;-54
2022/11/24 00:39:02;;;;;;;;;;;27.80;93.00;;;;;;5086407;28;20089;-57
2022/11/24 00:41:29;;;;;;;;;;;27.80;92.90;;;;;;5084340;28;19943;-53
2022/11/24 00:44:04;;;;;;;;;;;27.80;92.90;;;;;;5087502;28;19912;-56
2022/11/24 00:46:30;;;;;;;;;;;27.80;92.80;;;;;;5086732;28;19930;-52
2022/11/24 00:48:58;;;;;;;;;;;27.80;92.90;;;;;;5086237;28;19916;-53
2022/11/24 00:51:26;;;;;;;;;;;27.80;92.90;;;;;;5086371;28;19904;-52
2022/11/24 00:53:54;;;;;;;;;;;27.80;92.80;;;;;;5085989;28;19938;-52
2022/11/24 00:56:24;;;;;;;;;;;27.70;92.70;;;;;;5086454;28;20084;-51
2022/11/24 00:58:50;;;;;;;;;;;27.80;92.60;;;;;;5086413;28;19983;-53
2022/11/24 01:01:18;;;;;;;;;;;27.80;92.50;;;;;;5085536;28;20215;-53
2022/11/24 01:03:45;;;;;;;;;;;27.70;92.40;;;;;;5086211;28;19909;-55
2022/11/24 01:06:15;;;;;;;;;;;27.70;92.50;;;;;;5086125;28;19908;-55
2022/11/24 01:08:42;;;;;;;;;;;27.70;92.30;;;;;;5085915;28;19935;-57
2022/11/24 01:11:13;;;;;;;;;;;27.60;92.30;;;;;;5085775;28;19912;-54
2022/11/24 01:13:40;;;;;;;;;;;27.60;92.40;;;;;;5086011;28;19904;-53
2022/11/24 01:16:18;;;;;;;;;;;27.60;92.30;;;;;;5085641;28;19909;-53
2022/11/24 01:18:44;;;;;;;;;;;27.60;92.20;;;;;;5085644;28;19904;-53
2022/11/24 01:21:17;;;;;;;;;;;27.60;92.10;;;;;;5084317;28;19915;-57
2022/11/24 01:23:44;;;;;;;;;;;27.60;92.20;;;;;;5085996;28;19943;-53
2022/11/24 01:26:12;;;;;;;;;;;27.60;92.10;;;;;;5085822;28;19912;-52
2022/11/24 01:28:38;;;;;;;;;;;27.60;92.00;;;;;;5085617;28;19946;-52
2022/11/24 01:31:05;;;;;;;;;;;27.60;92.00;;;;;;5078506;28;19908;-60
2022/11/24 01:33:32;;;;;;;;;;;27.60;92.00;;;;;;5085052;28;19909;-51
2022/11/24 01:36:01;;;;;;;;;;;27.50;91.80;;;;;;5084857;28;19991;-58
2022/11/24 01:38:28;;;;;;;;;;;27.50;91.80;;;;;;5083931;28;20422;-48
2022/11/24 01:41:07;;;;;;;;;;;27.50;91.80;;;;;;5078052;28;19909;-49
2022/11/24 01:43:34;;;;;;;;;;;27.40;92.00;;;;;;5082853;28;20196;-51
2022/11/24 01:46:12;;;;;;;;;;;27.30;91.90;;;;;;5077737;28;19979;-50
2022/11/24 01:48:42;;;;;;;;;;;27.30;92.00;;;;;;5065880;28;19905;-52
2022/11/24 01:51:17;;;;;;;;;;;27.20;92.10;;;;;;5082243;28;19940;-46
2022/11/24 01:53:48;;;;;;;;;;;27.20;92.10;;;;;;5081481;28;20192;-49
2022/11/24 01:56:14;;;;;;;;;;;27.10;92.20;;;;;;5083376;28;19908;-49
2022/11/24 01:58:43;;;;;;;;;;;27.10;92.10;;;;;;5078043;28;19974;-48
2022/11/24 02:01:09;;;;;;;;;;;27.10;92.10;;;;;;5085381;28;19916;-51
2022/11/24 02:03:39;;;;;;;;;;;27.10;92.20;;;;;;5083937;28;19907;-50
2022/11/24 02:06:10;;;;;;;;;;;27.10;92.30;;;;;;5083263;28;19948;-49
2022/11/24 02:08:42;;;;;;;;;;;27.00;92.40;;;;;;5076078;28;19905;-51
2022/11/24 02:11:09;;;;;;;;;;;27.00;92.30;;;;;;5078792;28;20097;-50
2022/11/24 02:13:36;;;;;;;;;;;27.00;92.20;;;;;;5082021;28;20137;-49
2022/11/24 02:16:04;;;;;;;;;;;27.00;92.30;;;;;;5076106;28;19971;-50
2022/11/24 02:18:30;;;;;;;;;;;26.90;92.30;;;;;;5079984;28;19919;-47
2022/11/24 02:20:57;;;;;;;;;;;26.90;92.40;;;;;;5080756;28;19983;-49
2022/11/24 02:23:28;;;;;;;;;;;26.90;92.40;;;;;;5076939;28;19912;-49
2022/11/24 02:26:14;;;;;;;;;;;26.90;92.40;;;;;;5078144;28;19913;-54
2022/11/24 02:28:40;;;;;;;;;;;26.90;92.50;;;;;;5070407;28;19916;-52
2022/11/24 02:31:07;;;;;;;;;;;26.90;92.40;;;;;;5080654;28;19980;-48
2022/11/24 02:33:33;;;;;;;;;;;26.90;92.30;;;;;;5080153;28;19998;-46
2022/11/24 02:36:00;;;;;;;;;;;26.90;92.10;;;;;;5075940;28;19983;-49
2022/11/24 02:38:30;;;;;;;;;;;26.80;92.10;;;;;;5075956;28;19943;-52
2022/11/24 02:40:57;;;;;;;;;;;26.90;92.20;;;;;;5078238;28;20196;-48
2022/11/24 02:43:23;;;;;;;;;;;26.80;92.00;;;;;;5075238;28;19901;-50
2022/11/24 02:45:49;;;;;;;;;;;26.80;92.20;;;;;;5068500;28;19916;-54
2022/11/24 02:48:15;;;;;;;;;;;26.80;92.20;;;;;;5063423;28;19928;-50
2022/11/24 02:50:42;;;;;;;;;;;26.80;92.20;;;;;;5074585;28;19975;-52
2022/11/24 02:53:08;;;;;;;;;;;26.70;92.20;;;;;;5065143;28;19909;-51
2022/11/24 02:55:34;;;;;;;;;;;26.70;92.20;;;;;;5063676;28;19901;-52
2022/11/24 02:58:00;;;;;;;;;;;26.70;92.30;;;;;;5069113;28;19979;-53
2022/11/24 03:00:26;;;;;;;;;;;26.70;92.20;;;;;;5084391;28;20186;-49
2022/11/24 03:02:53;;;;;;;;;;;26.70;92.10;;;;;;5084220;28;19909;-57
2022/11/24 03:05:19;;;;;;;;;;;26.70;92.30;;;;;;5081260;28;19904;-52
2022/11/24 03:07:45;;;;;;;;;;;26.70;92.20;;;;;;5083593;28;20189;-52
2022/11/24 03:10:11;;;;;;;;;;;26.80;92.20;;;;;;5084449;28;20077;-58
2022/11/24 03:12:40;;;;;;;;;;;26.90;92.10;;;;;;5084346;28;19904;-52
2022/11/24 03:15:06;;;;;;;;;;;26.90;92.20;;;;;;5083973;28;20272;-56
2022/11/24 03:17:32;;;;;;;;;;;26.90;92.10;;;;;;5084471;28;19945;-55
2022/11/24 03:20:00;;;;;;;;;;;26.80;92.00;;;;;;5078024;28;19912;-55
2022/11/24 03:22:27;;;;;;;;;;;26.80;92.00;;;;;;5072862;28;19988;-54
2022/11/24 03:24:54;;;;;;;;;;;26.80;91.90;;;;;;5064734;28;20192;-55
2022/11/24 03:27:40;;;;;;;;;;;26.80;92.10;;;;;;5083349;28;20007;-54
2022/11/24 03:30:07;;;;;;;;;;;26.80;92.20;;;;;;5087962;28;19923;-54
2022/11/24 03:32:33;;;;;;;;;;;26.70;92.20;;;;;;5087882;28;20065;-53
2022/11/24 03:34:59;;;;;;;;;;;26.70;92.20;;;;;;5087187;28;19912;-59
2022/11/24 03:37:27;;;;;;;;;;;26.70;92.20;;;;;;5087489;28;19912;-60
2022/11/24 03:39:53;;;;;;;;;;;26.70;92.10;;;;;;5087470;28;19908;-55
2022/11/24 03:42:19;;;;;;;;;;;26.70;92.20;;;;;;5086030;28;19911;-53
2022/11/24 03:44:45;;;;;;;;;;;26.70;92.50;;;;;;5080688;28;19912;-50
2022/11/24 03:47:11;;;;;;;;;;;26.70;92.30;;;;;;5087853;28;20076;-57
2022/11/24 03:49:37;;;;;;;;;;;26.70;92.40;;;;;;5086904;28;19919;-53
2022/11/24 03:52:04;;;;;;;;;;;26.70;92.20;;;;;;5079632;28;19912;-57
2022/11/24 03:54:30;;;;;;;;;;;26.70;92.00;;;;;;5077827;28;19908;-56
2022/11/24 03:56:57;;;;;;;;;;;26.70;91.80;;;;;;5076133;28;19971;-53
2022/11/24 03:59:24;;;;;;;;;;;26.60;91.90;;;;;;5081840;28;19951;-51
2022/11/24 04:01:50;;;;;;;;;;;26.60;91.90;;;;;;5075664;28;19901;-55
2022/11/24 04:04:16;;;;;;;;;;;26.60;91.70;;;;;;5077078;28;19919;-56
2022/11/24 04:06:42;;;;;;;;;;;26.60;91.60;;;;;;5076804;28;19948;-55
2022/11/24 04:09:08;;;;;;;;;;;26.60;91.50;;;;;;5080740;28;19936;-53
2022/11/24 04:14:19;;;;;;;;;;;26.60;91.80;;;;;;5086719;28;19935;-55
2022/11/24 04:16:46;;;;;;;;;;;26.60;91.80;;;;;;5086701;28;19942;-52
2022/11/24 04:19:12;;;;;;;;;;;26.50;91.70;;;;;;5086718;28;19909;-58
2022/11/24 04:21:38;;;;;;;;;;;26.50;91.50;;;;;;5086886;28;19911;-53
2022/11/24 04:24:04;;;;;;;;;;;26.50;91.60;;;;;;5086807;28;19915;-56
2022/11/24 04:26:30;;;;;;;;;;;26.50;91.60;;;;;;5086621;28;20061;-55
2022/11/24 04:28:56;;;;;;;;;;;26.40;91.70;;;;;;5086452;28;19947;-57
2022/11/24 04:31:23;;;;;;;;;;;26.40;91.80;;;;;;5086897;28;19900;-57
2022/11/24 04:33:49;;;;;;;;;;;26.40;91.80;;;;;;5086378;28;19975;-55
2022/11/24 04:36:15;;;;;;;;;;;26.30;91.80;;;;;;5085690;28;19921;-55
2022/11/24 04:38:42;;;;;;;;;;;26.40;92.00;;;;;;5086577;28;19908;-55
2022/11/24 04:41:08;;;;;;;;;;;26.30;91.90;;;;;;5086451;28;19946;-54
2022/11/24 04:43:35;;;;;;;;;;;26.30;91.90;;;;;;5085983;28;19946;-56
2022/11/24 04:46:09;;;;;;;;;;;26.30;91.90;;;;;;5086603;28;19931;-61
2022/11/24 04:48:35;;;;;;;;;;;26.30;91.90;;;;;;5086007;28;19916;-52
2022/11/24 04:51:05;;;;;;;;;;;26.30;91.90;;;;;;5085971;28;19949;-55
2022/11/24 04:53:31;;;;;;;;;;;26.30;92.00;;;;;;5086257;28;19915;-51
2022/11/24 04:55:57;;;;;;;;;;;26.30;92.10;;;;;;5086174;28;20173;-52
2022/11/24 04:58:23;;;;;;;;;;;26.20;92.10;;;;;;5085597;28;24092;-51
2022/11/24 05:00:49;;;;;;;;;;;26.30;92.30;;;;;;5085922;28;19904;-52
2022/11/24 05:03:15;;;;;;;;;;;26.30;92.30;;;;;;5085870;28;19950;-53
2022/11/24 05:05:41;;;;;;;;;;;26.20;92.20;;;;;;5085588;28;20070;-55
2022/11/24 05:08:08;;;;;;;;;;;26.20;92.10;;;;;;5085885;28;19942;-52
2022/11/24 05:10:34;;;;;;;;;;;26.20;92.20;;;;;;5085708;28;19905;-52
2022/11/24 05:13:01;;;;;;;;;;;26.20;92.30;;;;;;5085373;28;24068;-55
2022/11/24 05:15:27;;;;;;;;;;;26.20;92.20;;;;;;5085652;28;19912;-53
2022/11/24 05:17:53;;;;;;;;;;;26.20;92.20;;;;;;5085599;28;20095;-52
2022/11/24 05:20:20;;;;;;;;;;;26.10;92.20;;;;;;5085409;28;19905;-57
2022/11/24 05:22:48;;;;;;;;;;;26.10;92.40;;;;;;5085524;28;19908;-56
2022/11/24 05:25:14;;;;;;;;;;;26.10;92.30;;;;;;5085218;28;25112;-52
2022/11/24 05:27:40;;;;;;;;;;;26.10;92.30;;;;;;5085578;28;19911;-55
2022/11/24 05:30:07;;;;;;;;;;;26.10;92.30;;;;;;5085295;28;19908;-53
2022/11/24 05:32:33;;;;;;;;;;;26.10;92.30;;;;;;5085929;28;19904;-54
2022/11/24 05:35:01;;;;;;;;;;;26.10;92.30;;;;;;5085201;28;20183;-57
2022/11/24 05:37:27;;;;;;;;;;;26.10;92.30;;;;;;5085105;28;20202;-53
2022/11/24 05:39:53;;;;;;;;;;;26.10;92.10;;;;;;5085140;28;19940;-53
2022/11/24 05:42:40;;;;;;;;;;;26.10;92.20;;;;;;5085336;28;24057;-51
2022/11/24 05:45:16;;;;;;;;;;;26.10;92.20;;;;;;5084608;28;19930;-53
2022/11/24 05:47:42;;;;;;;;;;;26.10;92.20;;;;;;5084505;28;19908;-51
2022/11/24 05:50:10;;;;;;;;;;;26.00;92.20;;;;;;5084929;28;24060;-52
2022/11/24 05:52:36;;;;;;;;;;;26.10;92.30;;;;;;5085267;28;19912;-52
2022/11/24 05:55:03;;;;;;;;;;;26.00;92.40;;;;;;5084683;28;24108;-57
2022/11/24 05:57:29;;;;;;;;;;;26.00;92.40;;;;;;5085190;28;20198;-51
2022/11/24 05:59:56;;;;;;;;;;;26.00;92.40;;;;;;5084704;28;20189;-52
2022/11/24 06:02:22;;;;;;;;;;;26.00;92.50;;;;;;5085020;28;24113;-57
2022/11/24 06:04:48;;;;;;;;;;;26.00;92.50;;;;;;5084709;28;19920;-57
2022/11/24 06:07:14;;;;;;;;;;;26.00;92.50;;;;;;5084961;28;20032;-53
2022/11/24 06:09:42;;;;;;;;;;;26.00;92.50;;;;;;5084680;28;19909;-52
2022/11/24 06:12:09;;;;;;;;;;;26.00;92.60;;;;;;5084850;28;19904;-58
2022/11/24 06:14:35;;;;;;;;;;;26.00;92.60;;;;;;5084440;28;25049;-57
2022/11/24 06:17:01;;;;;;;;;;;25.90;92.70;;;;;;5084924;28;19911;-53
2022/11/24 06:19:27;;;;;;;;;;;25.90;92.80;;;;;;5084345;28;19943;-54
2022/11/24 06:21:54;;;;;;;;;;;25.90;92.80;;;;;;5084261;28;24062;-55
2022/11/24 06:24:20;;;;;;;;;;;25.90;92.70;;;;;;5084536;28;20182;-56
2022/11/24 06:26:46;;;;;;;;;;;25.90;92.60;;;;;;5084490;28;19909;-59
2022/11/24 06:29:12;;;;;;;;;;;25.90;92.60;;;;;;5084500;28;19908;-53
2022/11/24 06:31:38;;;;;;;;;;;25.90;92.50;;;;;;5084428;28;20127;-54
2022/11/24 06:34:06;;;;;;;;;;;25.90;92.50;;;;;;5084299;28;20127;-52
2022/11/24 06:36:32;;;;;;;;;;;25.90;92.40;;;;;;5084069;28;20425;-53
2022/11/24 06:39:01;;;;;;;;;;;25.90;92.50;;;;;;5084456;28;19975;-53
2022/11/24 06:41:28;;;;;;;;;;;25.90;92.40;;;;;;5084197;28;24073;-55
2022/11/24 06:43:54;;;;;;;;;;;25.90;92.50;;;;;;5084432;28;19908;-53
2022/11/24 06:46:21;;;;;;;;;;;25.90;92.50;;;;;;5084297;28;24057;-53
2022/11/24 06:48:50;;;;;;;;;;;25.90;92.40;;;;;;5084033;28;19915;-53
2022/11/24 06:51:17;;;;;;;;;;;25.80;92.50;;;;;;5084274;28;19911;-55
2022/11/24 06:53:44;;;;;;;;;;;25.80;92.70;;;;;;5083984;28;24099;-57
2022/11/24 06:56:11;;;;;;;;;;;25.80;92.60;;;;;;5084166;28;19904;-53
2022/11/24 06:58:44;;;;;;;;;;;25.70;92.60;;;;;;5084497;28;24073;-52
2022/11/24 07:01:28;;;;;;;;;;;25.70;92.60;;;;;;5088324;28;20176;-54
2022/11/24 07:03:55;;;;;;;;;;;25.70;92.60;;;;;;5088234;28;19968;-53
2022/11/24 07:06:22;;;;;;;;;;;25.70;92.80;;;;;;5088238;28;20120;-53
2022/11/24 07:08:48;;;;;;;;;;;25.70;92.90;;;;;;5087706;28;19904;-56
2022/11/24 07:11:16;;;;;;;;;;;25.80;92.70;;;;;;5088214;28;19901;-53
2022/11/24 07:13:42;;;;;;;;;;;25.80;92.70;;;;;;5087911;28;20039;-52
2022/11/24 07:16:10;;;;;;;;;;;25.80;92.70;;;;;;5087922;28;19904;-57
2022/11/24 07:18:36;;;;;;;;;;;25.80;92.70;;;;;;5087897;28;19908;-55
2022/11/24 07:21:05;;;;;;;;;;;25.80;92.70;;;;;;5087756;28;19908;-57
2022/11/24 07:23:31;;;;;;;;;;;25.80;92.40;;;;;;5087599;28;24090;-58
2022/11/24 07:25:58;;;;;;;;;;;25.70;92.30;;;;;;5087635;28;19969;-53
2022/11/24 07:28:24;;;;;;;;;;;25.70;92.60;;;;;;5087688;28;20096;-52
2022/11/24 07:30:50;;;;;;;;;;;25.70;92.00;;;;;;5087359;28;19904;-53
2022/11/24 07:33:20;;;;;;;;;;;25.80;92.10;;;;;;5087570;28;20176;-57
2022/11/24 07:35:46;;;;;;;;;;;25.80;91.90;;;;;;5087286;28;24089;-54
2022/11/24 07:38:12;;;;;;;;;;;25.80;91.80;;;;;;5087197;28;19912;-52
2022/11/24 07:40:38;;;;;;;;;;;25.90;91.80;;;;;;5087300;28;19928;-55
2022/11/24 07:43:04;;;;;;;;;;;25.90;91.60;;;;;;5087396;28;19909;-54
2022/11/24 07:45:30;;;;;;;;;;;25.80;91.40;;;;;;5087155;28;24123;-55
2022/11/24 07:47:56;;;;;;;;;;;25.80;91.50;;;;;;5087156;28;19979;-54
2022/11/24 07:50:22;;;;;;;;;;;25.80;91.50;;;;;;5087169;28;19904;-54
2022/11/24 07:52:49;;;;;;;;;;;25.90;91.60;;;;;;5087064;28;25060;-56
2022/11/24 07:55:15;;;;;;;;;;;25.90;91.80;;;;;;5086916;28;19905;-55
2022/11/24 07:57:41;;;;;;;;;;;25.90;91.80;;;;;;5087600;28;20049;-56
2022/11/24 08:00:08;;;;;;;;;;;25.90;91.90;;;;;;5087098;28;24093;-53
2022/11/24 08:02:34;;;;;;;;;;;25.90;92.00;;;;;;5087221;28;20164;-58
2022/11/24 08:05:00;;;;;;;;;;;25.90;92.00;;;;;;5086926;28;24065;-53
2022/11/24 08:07:26;;;;;;;;;;;25.90;92.00;;;;;;5086693;28;20248;-56
2022/11/24 08:09:52;;;;;;;;;;;25.80;92.00;;;;;;5086600;28;19905;-52
2022/11/24 08:12:22;;;;;;;;;;;25.80;92.20;;;;;;5086530;28;19904;-56
2022/11/24 08:14:49;;;;;;;;;;;25.80;92.40;;;;;;5086778;28;20143;-51
2022/11/24 08:17:18;;;;;;;;;;;25.80;92.40;;;;;;5086824;28;19904;-54
2022/11/24 08:19:44;;;;;;;;;;;25.80;92.50;;;;;;5086696;28;19931;-57
2022/11/24 08:22:10;;;;;;;;;;;25.70;92.50;;;;;;5086794;28;20138;-53
2022/11/24 08:24:37;;;;;;;;;;;25.70;92.70;;;;;;5086535;28;19954;-54
2022/11/24 08:27:03;;;;;;;;;;;25.80;92.90;;;;;;5086509;28;20033;-54
2022/11/24 08:29:29;;;;;;;;;;;25.80;92.70;;;;;;5086271;28;19963;-53
2022/11/24 08:31:56;;;;;;;;;;;25.80;92.70;;;;;;5086737;28;19939;-55
2022/11/24 08:34:23;;;;;;;;;;;25.70;92.70;;;;;;5086437;28;24058;-58
2022/11/24 08:36:49;;;;;;;;;;;25.70;92.70;;;;;;5086182;28;19987;-54
2022/11/24 08:39:16;;;;;;;;;;;25.70;92.80;;;;;;5086247;28;19988;-55
2022/11/24 08:41:42;;;;;;;;;;;25.70;92.80;;;;;;5086408;28;20136;-54
2022/11/24 08:44:09;;;;;;;;;;;25.70;92.70;;;;;;5086249;28;19909;-54
2022/11/24 08:46:35;;;;;;;;;;;25.70;92.80;;;;;;5086121;28;24088;-57
2022/11/24 08:49:02;;;;;;;;;;;25.70;92.50;;;;;;5085950;28;19916;-53
2022/11/24 08:51:28;;;;;;;;;;;25.70;92.50;;;;;;5086112;28;19905;-53
2022/11/24 08:53:55;;;;;;;;;;;25.70;92.50;;;;;;5085835;28;25098;-59
2022/11/24 08:56:22;;;;;;;;;;;25.60;92.50;;;;;;5085946;28;19919;-54
2022/11/24 08:58:48;;;;;;;;;;;25.70;92.50;;;;;;5085835;28;19904;-55
2022/11/24 09:01:14;;;;;;;;;;;25.60;92.50;;;;;;5085993;28;19904;-57
2022/11/24 09:03:41;;;;;;;;;;;25.70;92.60;;;;;;5085580;28;24119;-53
2022/11/24 09:06:08;;;;;;;;;;;25.60;92.60;;;;;;5085674;28;19915;-53
2022/11/24 09:08:34;;;;;;;;;;;25.60;92.60;;;;;;5085634;28;19904;-56
2022/11/24 09:11:05;;;;;;;;;;;25.60;92.50;;;;;;5085658;28;24086;-58
2022/11/24 09:13:32;;;;;;;;;;;25.60;92.60;;;;;;5085444;28;19915;-52
2022/11/24 09:16:05;;;;;;;;;;;25.50;92.70;;;;;;5085729;28;19908;-54
2022/11/24 09:18:31;;;;;;;;;;;25.50;92.90;;;;;;5085429;28;19908;-56
2022/11/24 09:21:17;;;;;;;;;;;25.50;92.80;;;;;;5085650;28;20172;-53
2022/11/24 09:23:44;;;;;;;;;;;25.50;92.90;;;;;;5085151;28;19916;-60
2022/11/24 09:26:12;;;;;;;;;;;25.50;92.90;;;;;;5085501;28;19908;-56
2022/11/24 09:28:39;;;;;;;;;;;25.40;92.90;;;;;;5085187;28;19904;-60
2022/11/24 09:31:07;;;;;;;;;;;25.50;93.00;;;;;;5085462;28;19918;-54
2022/11/24 09:33:33;;;;;;;;;;;25.40;92.90;;;;;;5085360;28;20122;-56
2022/11/24 09:36:00;;;;;;;;;;;25.40;92.90;;;;;;5085014;28;24061;-62
2022/11/24 09:38:26;;;;;;;;;;;25.40;93.10;;;;;;5084976;28;19905;-60
2022/11/24 09:40:53;;;;;;;;;;;25.40;93.30;;;;;;5085163;28;19904;-53
2022/11/24 09:43:35;;;;;;;;;;;25.40;93.40;;;;;;5084942;28;24058;-56
2022/11/24 09:46:07;;;;;;;;;;;25.40;93.40;;;;;;5084979;28;20217;-57
2022/11/24 09:48:41;;;;;;;;;;;25.40;93.60;;;;;;5085019;28;19908;-59
2022/11/24 09:51:12;;;;;;;;;;;25.40;93.40;;;;;;5085050;28;24083;-58
2022/11/24 09:53:43;;;;;;;;;;;25.50;93.60;;;;;;5084822;28;19908;-56
2022/11/24 09:56:12;;;;;;;;;;;25.50;93.40;;;;;;5084757;28;19900;-55
2022/11/24 09:58:52;;;;;;;;;;;25.50;93.40;;;;;;5084621;28;19908;-54
2022/11/24 10:01:39;;;;;;;;;;;25.50;93.40;;;;;;5084798;28;19912;-56
2022/11/24 10:04:38;;;;;;;;;;;25.50;93.40;;;;;;5084641;28;24054;-55
2022/11/24 10:07:04;;;;;;;;;;;25.50;93.40;;;;;;5050931;28;19945;-53
2022/11/24 10:09:33;;;;;;;;;;;25.50;93.40;;;;;;5084578;28;19908;-52
2022/11/24 10:12:02;;;;;;;;;;;25.50;93.60;;;;;;5084603;28;24079;-50
2022/11/24 10:14:47;;;;;;;;;;;25.40;93.50;;;;;;5084286;28;19909;-56
2022/11/24 10:17:16;;;;;;;;;;;25.50;93.40;;;;;;5084868;28;19904;-53
2022/11/24 10:19:46;;;;;;;;;;;25.50;93.30;;;;;;5084351;28;20134;-55
2022/11/24 10:22:18;;;;;;;;;;;25.50;93.40;;;;;;5084667;28;19905;-55
2022/11/24 10:25:16;;;;;;;;;;;25.50;93.20;;;;;;5084441;28;20220;-53
2022/11/24 10:27:44;;;;;;;;;;;25.50;93.30;;;;;;5050261;28;19914;-52
2022/11/24 10:30:20;;;;;;;;;;;25.50;93.20;;;;;;5084356;28;20014;-53
2022/11/24 10:33:09;;;;;;;;;;;25.50;93.40;;;;;;5084397;28;24069;-51
2022/11/24 10:35:44;;;;;;;;;;;25.50;93.40;;;;;;5075879;28;19908;-53
2022/11/24 10:38:26;;;;;;;;;;;25.50;93.40;;;;;;5084166;28;19924;-57
2022/11/24 10:40:53;;;;;;;;;;;25.40;93.50;;;;;;5084191;28;24100;-60
2022/11/24 10:43:19;;;;;;;;;;;25.40;93.70;;;;;;5084235;28;19916;-55
2022/11/24 10:45:46;;;;;;;;;;;25.50;93.60;;;;;;5083830;28;24069;-53
2022/11/24 10:48:17;;;;;;;;;;;25.40;94.00;;;;;;5084188;28;19908;-59
2022/11/24 10:50:44;;;;;;;;;;;25.50;93.90;;;;;;5084160;28;19936;-62
2022/11/24 10:53:20;;;;;;;;;;;25.50;93.90;;;;;;5084350;28;19916;-56
2022/11/24 10:55:55;;;;;;;;;;;25.50;93.80;;;;;;5084084;28;19975;-56
2022/11/24 10:58:23;;;;;;;;;;;25.50;93.70;;;;;;5083837;28;24069;-55
2022/11/24 11:00:50;;;;;;;;;;;25.50;93.70;;;;;;5083916;28;20161;-57
2022/11/24 11:03:20;;;;;;;;;;;25.50;93.80;;;;;;5084073;28;19916;-54
2022/11/24 11:05:48;;;;;;;;;;;25.50;93.90;;;;;;5083832;28;24079;-58
2022/11/24 11:08:18;;;;;;;;;;;25.50;94.00;;;;;;5083900;28;19909;-54
2022/11/24 11:10:45;;;;;;;;;;;25.50;94.00;;;;;;5084080;28;19911;-59
2022/11/24 11:13:21;;;;;;;;;;;25.50;94.40;;;;;;5083993;28;24094;-57
2022/11/24 11:15:47;;;;;;;;;;;25.50;94.20;;;;;;5084181;28;19939;-54
2022/11/24 11:18:17;;;;;;;;;;;25.60;94.20;;;;;;5083813;28;19908;-51
2022/11/24 11:20:51;;;;;;;;;;;25.50;94.20;;;;;;5084104;28;19905;-50
2022/11/24 11:23:36;;;;;;;;;;;25.60;94.10;;;;;;5083701;28;24064;-57
2022/11/24 11:26:20;;;;;;;;;;;25.50;94.00;;;;;;5082002;28;19938;-52
2022/11/24 11:28:59;;;;;;;;;;;25.60;93.90;;;;;;5083667;28;19943;-53
2022/11/24 11:31:25;;;;;;;;;;;25.60;93.90;;;;;;5083755;28;24080;-58
2022/11/24 11:34:14;;;;;;;;;;;25.70;94.00;;;;;;5083528;28;19908;-51
2022/11/24 11:36:59;;;;;;;;;;;25.70;93.90;;;;;;5075765;28;19946;-54
2022/11/24 11:39:28;;;;;;;;;;;25.70;93.90;;;;;;5082492;28;24078;-53
2022/11/24 11:42:00;;;;;;;;;;;25.70;93.90;;;;;;5084049;28;19904;-56
2022/11/24 11:45:02;;;;;;;;;;;25.80;93.90;;;;;;5083771;28;19915;-60
2022/11/24 11:47:42;;;;;;;;;;;25.80;93.80;;;;;;5025175;28;19909;-57
2022/11/24 11:50:22;;;;;;;;;;;25.80;93.80;;;;;;5080106;28;24104;-54
2022/11/24 11:52:54;;;;;;;;;;;25.80;93.80;;;;;;5087011;28;24076;-58
2022/11/24 11:55:20;;;;;;;;;;;25.90;93.80;;;;;;5086914;28;20092;-57
2022/11/24 11:58:10;;;;;;;;;;;25.90;93.70;;;;;;5087137;28;19916;-58
2022/11/24 12:00:38;;;;;;;;;;;25.90;93.80;;;;;;5058591;28;24066;-56
2022/11/24 12:03:10;;;;;;;;;;;25.90;93.70;;;;;;5086976;28;24118;-60
2022/11/24 12:05:45;;;;;;;;;;;26.00;93.70;;;;;;5086518;28;19911;-57
2022/11/24 12:08:32;;;;;;;;;;;26.00;93.60;;;;;;5086780;28;19984;-58
2022/11/24 12:11:04;;;;;;;;;;;26.00;93.60;;;;;;5086605;28;24086;-54
2022/11/24 12:13:49;;;;;;;;;;;26.10;93.70;;;;;;5086548;28;20150;-53
2022/11/24 12:16:29;;;;;;;;;;;26.00;93.60;;;;;;5086723;28;19905;-59
2022/11/24 12:19:07;;;;;;;;;;;26.10;93.70;;;;;;5086614;28;24052;-56
2022/11/24 12:21:56;;;;;;;;;;;26.10;93.60;;;;;;5086532;28;19904;-60
2022/11/24 12:24:33;;;;;;;;;;;26.10;93.60;;;;;;5078497;28;20081;-60
2022/11/24 12:26:59;;;;;;;;;;;26.10;93.50;;;;;;5086664;28;25070;-55
2022/11/24 12:29:44;;;;;;;;;;;26.20;93.50;;;;;;5086382;28;19915;-58
2022/11/24 12:32:22;;;;;;;;;;;26.20;93.40;;;;;;5086976;28;19908;-56
2022/11/24 12:34:55;;;;;;;;;;;26.30;93.50;;;;;;5086188;28;24077;-58
2022/11/24 12:37:23;;;;;;;;;;;26.30;93.50;;;;;;5085962;28;19993;-54
2022/11/24 12:39:50;;;;;;;;;;;26.30;93.50;;;;;;5086311;28;19915;-55
2022/11/24 12:42:25;;;;;;;;;;;26.30;93.40;;;;;;5086599;28;24104;-62
2022/11/24 12:44:51;;;;;;;;;;;26.40;93.40;;;;;;5076934;28;19909;-53
2022/11/24 12:47:35;;;;;;;;;;;26.40;93.40;;;;;;5066392;28;19915;-54
2022/11/24 12:50:07;;;;;;;;;;;26.40;93.40;;;;;;5065864;28;19908;-58
2022/11/24 12:52:39;;;;;;;;;;;26.40;93.40;;;;;;5066337;28;19912;-55
2022/11/24 12:55:11;;;;;;;;;;;26.40;93.50;;;;;;5065932;28;19913;-55
2022/11/24 12:57:50;;;;;;;;;;;26.40;93.40;;;;;;5066109;28;24084;-58
2022/11/24 13:00:21;;;;;;;;;;;26.50;93.60;;;;;;5069768;28;19946;-55
2022/11/24 13:02:59;;;;;;;;;;;26.50;93.60;;;;;;5085735;28;19975;-52
2022/11/24 13:05:25;;;;;;;;;;;26.40;93.50;;;;;;5085980;28;19904;-53
2022/11/24 13:08:00;;;;;;;;;;;26.40;93.60;;;;;;5085561;28;24075;-53
2022/11/24 13:10:28;;;;;;;;;;;26.40;93.70;;;;;;5085546;28;19905;-54
2022/11/24 13:12:54;;;;;;;;;;;26.40;93.70;;;;;;5085434;28;19909;-55
2022/11/24 13:15:20;;;;;;;;;;;26.40;93.70;;;;;;5085739;28;19900;-55
2022/11/24 13:17:46;;;;;;;;;;;26.40;93.70;;;;;;5065646;28;24069;-53
2022/11/24 13:20:13;;;;;;;;;;;26.40;93.70;;;;;;5080690;28;19904;-56
2022/11/24 13:22:46;;;;;;;;;;;26.40;93.70;;;;;;5085842;28;24080;-56
2022/11/24 13:25:20;;;;;;;;;;;26.40;93.70;;;;;;5085475;28;24089;-53
2022/11/24 13:27:47;;;;;;;;;;;26.50;93.80;;;;;;5085216;28;20129;-53
2022/11/24 13:30:32;;;;;;;;;;;26.40;93.80;;;;;;5085753;28;24080;-55
2022/11/24 13:33:00;;;;;;;;;;;26.50;93.80;;;;;;5085072;28;19909;-53
2022/11/24 13:35:26;;;;;;;;;;;26.50;93.80;;;;;;5085312;28;19967;-51
2022/11/24 13:37:53;;;;;;;;;;;26.50;93.70;;;;;;5085057;28;25085;-52
2022/11/24 13:40:21;;;;;;;;;;;26.50;93.80;;;;;;5085146;28;24090;-53
2022/11/24 13:42:54;;;;;;;;;;;26.60;93.80;;;;;;5085172;28;19912;-53
2022/11/24 13:45:38;;;;;;;;;;;26.60;93.80;;;;;;5084843;28;20192;-59
2022/11/24 13:48:25;;;;;;;;;;;26.60;93.80;;;;;;5085152;28;19912;-59
2022/11/24 13:50:52;;;;;;;;;;;26.60;93.90;;;;;;5053912;28;24083;-58
2022/11/24 13:53:27;;;;;;;;;;;26.60;93.90;;;;;;5084824;28;19939;-53
2022/11/24 13:56:07;;;;;;;;;;;26.60;93.90;;;;;;5084829;28;19905;-52
2022/11/24 13:58:37;;;;;;;;;;;26.60;94.00;;;;;;5084931;28;19909;-52
2022/11/24 14:01:06;;;;;;;;;;;26.60;94.00;;;;;;5084953;28;24079;-57
2022/11/24 14:03:37;;;;;;;;;;;26.70;94.10;;;;;;5084633;28;19940;-59
2022/11/24 14:06:04;;;;;;;;;;;26.70;94.10;;;;;;5085252;28;19908;-53
2022/11/24 14:08:36;;;;;;;;;;;26.80;94.10;;;;;;5084313;28;24071;-58
2022/11/24 14:11:03;;;;;;;;;;;26.80;94.10;;;;;;5084689;28;19905;-56
2022/11/24 14:13:30;;;;;;;;;;;26.90;94.10;;;;;;5084497;28;19938;-57
2022/11/24 14:16:08;;;;;;;;;;;26.90;94.00;;;;;;5084810;28;19911;-55
2022/11/24 14:18:35;;;;;;;;;;;26.90;93.90;;;;;;5084469;28;24081;-51
2022/11/24 14:21:20;;;;;;;;;;;27.00;93.80;;;;;;5084609;28;24080;-53
2022/11/24 14:23:50;;;;;;;;;;;27.00;93.80;;;;;;5084355;28;20197;-54
2022/11/24 14:26:35;;;;;;;;;;;27.00;93.70;;;;;;5084616;28;19946;-52
2022/11/24 14:29:15;;;;;;;;;;;27.10;93.60;;;;;;5084539;28;19909;-53
2022/11/24 14:31:42;;;;;;;;;;;27.10;93.30;;;;;;5084805;28;24105;-55
2022/11/24 14:34:11;;;;;;;;;;;27.20;93.20;;;;;;5081974;28;24080;-53